createdAt,value
2023-04-20T00:00:27.204Z,3.90
2023-04-20T00:05:51.060Z,3.00
2023-04-20T00:10:55.292Z,3.40
2023-04-20T00:15:59.225Z,3.00
2023-04-20T00:21:04.077Z,3.60
2023-04-20T00:26:08.206Z,3.30
2023-04-20T00:31:12.913Z,3.50
2023-04-20T00:36:16.991Z,3.00
2023-04-20T00:41:21.849Z,3.30
2023-04-20T00:46:26.311Z,3.30
2023-04-20T00:51:32.152Z,2.70
2023-04-20T00:56:36.184Z,3.40
2023-04-20T01:01:44.152Z,3.10
2023-04-20T01:06:48.249Z,3.50
2023-04-20T01:11:52.163Z,2.90
2023-04-20T01:16:56.193Z,3.10
2023-04-20T01:22:00.242Z,3.10
2023-04-20T01:27:04.666Z,2.70
2023-04-20T01:32:09.726Z,3.20
2023-04-20T01:37:14.164Z,2.90
2023-04-20T01:42:18.415Z,3.10
2023-04-20T01:47:22.508Z,3.10
2023-04-20T01:52:26.471Z,3.00
2023-04-20T01:57:30.615Z,3.10
2023-04-20T02:02:34.950Z,3.00
2023-04-20T02:07:39.092Z,3.00
2023-04-20T02:12:43.828Z,3.00
2023-04-20T02:17:52.826Z,3.00
2023-04-20T02:22:57.013Z,3.10
2023-04-20T02:28:01.460Z,2.80
2023-04-20T02:33:05.764Z,2.80
2023-04-20T02:38:09.716Z,3.30
2023-04-20T02:43:16.316Z,2.90
2023-04-20T02:48:21.061Z,3.00
2023-04-20T02:53:25.403Z,2.80
2023-04-20T02:58:45.301Z,3.20
2023-04-20T03:04:02.423Z,3.10
2023-04-20T03:09:08.101Z,3.40
2023-04-20T03:14:35.262Z,2.50
2023-04-20T03:19:39.800Z,3.00
2023-04-20T03:24:44.042Z,2.90
2023-04-20T03:30:07.277Z,2.80
2023-04-20T03:35:11.623Z,3.00
2023-04-20T03:40:16.845Z,2.60
2023-04-20T03:45:21.156Z,2.80
2023-04-20T03:50:26.530Z,2.80
2023-04-20T03:55:30.548Z,3.00
2023-04-20T04:00:39.313Z,3.10
2023-04-20T04:05:44.039Z,3.10
2023-04-20T04:10:48.262Z,3.10
2023-04-20T04:15:52.406Z,3.00
2023-04-20T04:20:56.437Z,2.90
2023-04-20T04:26:02.417Z,3.00
2023-04-20T04:31:10.072Z,2.80
2023-04-20T04:36:17.776Z,2.60
2023-04-20T04:41:21.983Z,3.40
2023-04-20T04:46:26.123Z,2.80
2023-04-20T04:51:32.295Z,2.70
2023-04-20T04:56:36.540Z,2.70
2023-04-20T05:01:40.480Z,2.50
2023-04-20T05:06:44.408Z,2.50
2023-04-20T05:11:48.633Z,2.50
2023-04-20T05:16:53.087Z,2.70
2023-04-20T05:21:57.121Z,2.50
2023-04-20T05:27:01.955Z,2.70
2023-04-20T05:32:06.181Z,2.40
2023-04-20T05:37:10.125Z,3.00
2023-04-20T05:42:14.277Z,2.30
2023-04-20T05:47:18.508Z,3.40
2023-04-20T05:52:22.772Z,3.50
2023-04-20T05:57:26.684Z,3.30
2023-04-20T06:02:31.062Z,3.40
2023-04-20T06:07:35.440Z,3.80
2023-04-20T06:12:39.493Z,3.70
2023-04-20T06:17:43.527Z,3.40
2023-04-20T06:22:47.945Z,3.70
2023-04-20T06:27:52.842Z,3.90
2023-04-20T06:32:57.571Z,3.90
2023-04-20T06:38:02.881Z,3.70
2023-04-20T06:43:06.846Z,4.30
2023-04-20T06:48:23.956Z,3.70
2023-04-20T06:53:34.865Z,3.80
2023-04-20T06:58:39.185Z,3.70
2023-04-20T07:03:45.428Z,3.70
2023-04-20T07:08:49.482Z,4.40
2023-04-20T07:13:53.454Z,5.30
2023-04-20T07:18:57.492Z,4.50
2023-04-20T07:24:01.608Z,4.50
2023-04-20T07:29:05.671Z,4.90
2023-04-20T07:34:09.981Z,5.50
2023-04-20T07:39:14.645Z,5.10
2023-04-20T07:44:18.466Z,4.70
2023-04-20T07:49:22.410Z,5.10
2023-04-20T07:54:26.934Z,4.70
2023-04-20T07:59:31.401Z,5.70
2023-04-20T08:04:41.299Z,5.30
2023-04-20T08:09:45.382Z,5.20
2023-04-20T08:14:49.509Z,5.20
2023-04-20T08:19:53.337Z,4.80
2023-04-20T08:24:58.007Z,5.00
2023-04-20T08:30:04.514Z,5.00
2023-04-20T08:35:09.128Z,5.00
2023-04-20T08:40:13.469Z,5.10
2023-04-20T08:45:17.390Z,5.80
2023-04-20T08:50:21.437Z,5.90
2023-04-20T08:55:25.285Z,5.30
2023-04-20T09:00:29.692Z,5.30
2023-04-20T09:05:33.822Z,5.40
2023-04-20T09:10:43.312Z,5.50
2023-04-20T09:15:47.326Z,5.40
2023-04-20T09:20:51.761Z,5.70
2023-04-20T09:25:55.893Z,5.50
2023-04-20T09:30:59.822Z,5.10
2023-04-20T09:36:06.002Z,6.20
2023-04-20T09:41:10.141Z,5.40
2023-04-20T09:46:14.089Z,5.90
2023-04-20T09:51:18.610Z,5.60
2023-04-20T09:56:22.850Z,5.90
2023-04-20T10:01:30.707Z,6.60
2023-04-20T10:06:36.377Z,6.60
2023-04-20T10:11:52.522Z,6.40
2023-04-20T10:17:02.447Z,7.20
2023-04-20T10:22:07.582Z,5.70
2023-04-20T10:27:22.217Z,7.20
2023-04-20T10:32:28.405Z,7.00
2023-04-20T10:37:33.209Z,6.90
2023-04-20T10:42:44.909Z,6.90
2023-04-20T10:47:49.037Z,6.70
2023-04-20T10:52:54.724Z,7.10
2023-04-20T10:57:59.048Z,6.80
2023-04-20T11:03:03.816Z,7.00
2023-04-20T11:08:08.174Z,6.30
2023-04-20T11:13:26.079Z,7.20
2023-04-20T11:18:32.420Z,7.40
2023-04-20T11:23:38.981Z,7.50
2023-04-20T11:28:55.178Z,6.30
2023-04-20T11:34:00.638Z,8.00
2023-04-20T11:39:14.129Z,7.10
2023-04-20T11:44:21.552Z,7.30
2023-04-20T11:49:27.828Z,7.00
2023-04-20T11:54:34.378Z,8.50
2023-04-20T11:59:38.286Z,7.50
2023-04-20T12:04:42.671Z,7.60
2023-04-20T12:09:46.962Z,7.80
2023-04-20T12:14:50.895Z,7.40
2023-04-20T12:19:55.124Z,7.60
2023-04-20T12:24:59.174Z,7.40
2023-04-20T12:30:04.546Z,6.80
2023-04-20T12:35:09.976Z,8.20
2023-04-20T12:40:14.356Z,7.40
2023-04-20T12:45:18.367Z,7.40
2023-04-20T12:50:22.718Z,7.50
2023-04-20T12:55:27.060Z,7.90
2023-04-20T13:00:31.092Z,7.40
2023-04-20T13:05:35.617Z,7.70
2023-04-20T13:10:43.244Z,7.50
2023-04-20T13:15:47.168Z,8.10
2023-04-20T13:20:51.206Z,7.40
2023-04-20T13:25:57.073Z,7.80
2023-04-20T13:31:01.314Z,7.70
2023-04-20T13:36:05.954Z,7.20
2023-04-20T13:41:11.241Z,7.40
2023-04-20T13:46:16.324Z,7.30
2023-04-20T13:51:20.420Z,7.70
2023-04-20T13:56:24.474Z,7.40
2023-04-20T14:01:28.655Z,7.50
2023-04-20T14:06:32.918Z,7.10
2023-04-20T14:11:36.854Z,7.40
2023-04-20T14:16:49.387Z,7.50
2023-04-20T14:21:53.300Z,7.00
2023-04-20T14:26:58.362Z,7.30
2023-04-20T14:32:02.510Z,6.70
2023-04-20T14:37:06.655Z,6.90
2023-04-20T14:42:10.772Z,7.20
2023-04-20T14:47:16.145Z,7.10
2023-04-20T14:52:21.170Z,6.70
2023-04-20T14:57:25.321Z,6.90
2023-04-20T15:02:29.496Z,6.70
2023-04-20T15:07:34.462Z,6.40
2023-04-20T15:12:40.325Z,7.20
2023-04-20T15:17:46.983Z,7.40
2023-04-20T15:22:51.446Z,6.40
2023-04-20T15:27:55.344Z,7.30
2023-04-20T15:33:05.081Z,7.10
2023-04-20T15:38:10.033Z,7.30
2023-04-20T15:43:14.116Z,7.30
2023-04-20T15:48:18.551Z,7.20
2023-04-20T15:53:23.011Z,7.60
2023-04-20T15:58:28.459Z,7.20
2023-04-20T16:03:33.301Z,7.40
2023-04-20T16:08:37.623Z,7.40
2023-04-20T16:13:41.665Z,7.20
2023-04-20T16:18:45.695Z,7.40
2023-04-20T16:24:00.791Z,7.60
2023-04-20T16:29:05.119Z,7.70
2023-04-20T16:34:09.071Z,7.70
2023-04-20T16:39:13.691Z,7.50
2023-04-20T16:44:17.610Z,7.60
2023-04-20T16:49:22.105Z,7.70
2023-04-20T16:54:26.103Z,7.40
2023-04-20T16:59:30.069Z,7.40
2023-04-20T17:04:34.281Z,7.40
2023-04-20T17:09:38.219Z,8.00
2023-04-20T17:14:44.011Z,8.20
2023-04-20T17:19:50.161Z,8.00
2023-04-20T17:24:55.259Z,7.70
2023-04-20T17:30:00.441Z,8.00
2023-04-20T17:35:05.902Z,7.40
2023-04-20T17:40:10.708Z,9.00
2023-04-20T17:45:15.672Z,8.50
2023-04-20T17:50:20.367Z,7.30
2023-04-20T17:55:25.176Z,7.80
2023-04-20T18:00:29.308Z,7.70
2023-04-20T18:05:33.431Z,7.90
2023-04-20T18:10:37.863Z,7.10
2023-04-20T18:15:45.699Z,7.40
2023-04-20T18:20:57.252Z,8.00
2023-04-20T18:26:03.139Z,7.90
2023-04-20T18:31:07.896Z,7.10
2023-04-20T18:36:13.286Z,7.40
2023-04-20T18:41:19.540Z,7.90
2023-04-20T18:46:27.694Z,7.90
2023-04-20T18:51:35.248Z,9.50
2023-04-20T18:56:41.849Z,8.90
2023-04-20T19:01:52.924Z,9.10
2023-04-20T19:06:58.049Z,9.40
2023-04-20T19:12:03.380Z,10.30
2023-04-20T19:17:09.515Z,9.70
2023-04-20T19:22:15.334Z,11.20
2023-04-20T19:27:20.573Z,10.90
2023-04-20T19:32:27.313Z,10.60
2023-04-20T19:37:33.705Z,10.70
2023-04-20T19:42:41.626Z,11.90
2023-04-20T19:47:48.460Z,13.10
2023-04-20T19:53:02.689Z,12.40
2023-04-20T19:58:10.984Z,13.10
2023-04-20T20:03:17.351Z,12.10
2023-04-20T20:08:22.969Z,12.40
2023-04-20T20:13:27.816Z,13.00
2023-04-20T20:18:35.614Z,12.30
2023-04-20T20:23:41.409Z,12.60
2023-04-20T20:28:45.563Z,12.40
2023-04-20T20:33:49.983Z,12.10
2023-04-20T20:38:54.973Z,11.60
2023-04-20T20:44:00.157Z,11.00
2023-04-20T20:49:04.633Z,11.30
2023-04-20T20:54:08.683Z,11.50
2023-04-20T20:59:12.717Z,10.40
2023-04-20T21:04:16.779Z,10.40
2023-04-20T21:09:21.240Z,11.30
2023-04-20T21:14:25.114Z,9.80
2023-04-20T21:19:29.254Z,10.40
2023-04-20T21:24:33.389Z,10.50
2023-04-20T21:29:37.414Z,10.20
2023-04-20T21:34:41.762Z,10.10
2023-04-20T21:39:46.399Z,10.80
2023-04-20T21:44:50.229Z,9.80
2023-04-20T21:49:54.266Z,9.80
2023-04-20T21:54:58.213Z,10.00
2023-04-20T22:00:02.117Z,9.70
2023-04-20T22:05:08.891Z,10.20
2023-04-20T22:10:13.041Z,9.10
2023-04-20T22:15:17.618Z,9.80
2023-04-20T22:20:21.543Z,9.40
2023-04-20T22:25:25.766Z,10.00
2023-04-20T22:30:29.802Z,9.20
2023-04-20T22:35:33.845Z,9.60
2023-04-20T22:40:37.862Z,8.90
2023-04-20T22:45:41.792Z,8.90
2023-04-20T22:50:46.063Z,10.30
2023-04-20T22:55:49.859Z,9.60
2023-04-20T23:00:53.809Z,9.00
2023-04-20T23:05:59.450Z,8.60
2023-04-20T23:11:04.124Z,9.20
2023-04-20T23:16:09.097Z,9.30
2023-04-20T23:21:13.297Z,8.80
2023-04-20T23:26:17.419Z,8.90
2023-04-20T23:31:21.705Z,9.20
2023-04-20T23:36:26.735Z,9.40
2023-04-20T23:41:30.741Z,9.80
2023-04-20T23:46:34.894Z,9.50
2023-04-20T23:51:38.914Z,9.20
2023-04-20T23:56:42.859Z,8.50
